Time;durP1;ratioP1;P1;durP2;ratioP2;P2;SDS_P1;SDS_P2;PMS_P1;PMS_P2;Temp;Humidity;BMP_temperature;BMP_pressure;BME280_temperature;BME280_humidity;BME280_pressure;Samples;Min_cycle;Max_cycle;Signal;HPM_P1;HPM_P2
2023/07/10 00:01:11;;;;;;;18.10;8.70;;;20.70;99.60;;;;;;5096096;28;20189;-43
2023/07/10 00:03:37;;;;;;;11.83;8.07;;;20.60;99.90;;;;;;5095345;28;20182;-41
2023/07/10 00:06:03;;;;;;;10.93;7.90;;;20.60;99.10;;;;;;5095276;28;20211;-41
2023/07/10 00:08:28;;;;;;;11.30;9.00;;;20.60;98.90;;;;;;5094041;28;20704;-44
2023/07/10 00:10:54;;;;;;;13.93;8.50;;;20.60;99.90;;;;;;5095224;28;20179;-42
2023/07/10 00:13:21;;;;;;;15.73;9.23;;;20.60;99.90;;;;;;5095463;28;20179;-44
2023/07/10 00:15:48;;;;;;;15.23;8.50;;;20.60;99.90;;;;;;5095503;28;20331;-42
2023/07/10 00:18:17;;;;;;;12.17;8.77;;;20.60;99.90;;;;;;5095171;28;20182;-43
2023/07/10 00:20:47;;;;;;;17.97;8.83;;;20.60;99.90;;;;;;5095061;28;20179;-41
2023/07/10 00:23:13;;;;;;;13.80;9.47;;;20.60;99.90;;;;;;5095310;28;20228;-44
2023/07/10 00:25:39;;;;;;;15.70;9.97;;;20.60;99.90;;;;;;5094808;28;20206;-44
2023/07/10 00:28:17;;;;;;;16.03;9.00;;;20.50;99.90;;;;;;5094883;28;20649;-42
2023/07/10 00:30:45;;;;;;;10.83;9.53;;;20.50;99.90;;;;;;5095127;28;20660;-43
2023/07/10 00:33:12;;;;;;;15.17;9.83;;;20.50;99.90;;;;;;5094861;28;20186;-42
2023/07/10 00:35:38;;;;;;;13.67;10.27;;;20.50;99.90;;;;;;5094890;28;20207;-43
2023/07/10 00:38:23;;;;;;;12.10;10.07;;;20.50;99.90;;;;;;5094540;28;20186;-43
2023/07/10 00:40:49;;;;;;;13.83;10.73;;;20.50;99.90;;;;;;5094696;28;20159;-44
2023/07/10 00:43:37;;;;;;;13.53;10.83;;;20.40;99.90;;;;;;5094887;28;20185;-43
2023/07/10 00:46:17;;;;;;;15.57;11.83;;;20.40;99.90;;;;;;5094533;28;20207;-45
2023/07/10 00:48:49;;;;;;;17.60;13.30;;;20.40;99.90;;;;;;5094265;28;20157;-43
2023/07/10 00:51:30;;;;;;;17.73;13.13;;;20.40;99.90;;;;;;5094807;28;20159;-42
2023/07/10 00:53:57;;;;;;;18.77;13.20;;;20.40;99.90;;;;;;5095755;28;20170;-44
2023/07/10 00:56:28;;;;;;;17.67;12.47;;;20.40;99.90;;;;;;5094603;28;20208;-44
2023/07/10 00:58:53;;;;;;;20.37;13.63;;;20.40;99.90;;;;;;5094901;28;20253;-45
2023/07/10 01:01:22;;;;;;;18.33;13.37;;;20.40;99.90;;;;;;5094310;28;20674;-45
2023/07/10 01:03:52;;;;;;;16.67;12.70;;;20.40;99.90;;;;;;5094342;28;20187;-43
2023/07/10 01:06:25;;;;;;;15.97;12.53;;;20.30;99.90;;;;;;5094098;28;20221;-42
2023/07/10 01:09:05;;;;;;;18.87;13.97;;;20.30;99.90;;;;;;5094774;28;20155;-43
2023/07/10 01:11:34;;;;;;;16.53;14.07;;;20.40;99.90;;;;;;5094114;28;20189;-42
2023/07/10 01:14:01;;;;;;;17.13;14.10;;;20.30;99.90;;;;;;5093985;28;20192;-42
2023/07/10 01:16:30;;;;;;;16.43;13.73;;;20.30;99.90;;;;;;5092810;28;20207;-42
2023/07/10 01:18:56;;;;;;;17.10;14.23;;;20.30;99.90;;;;;;5094226;28;20183;-43
2023/07/10 01:21:32;;;;;;;19.30;14.30;;;20.30;99.90;;;;;;5094227;28;20278;-41
2023/07/10 01:24:01;;;;;;;16.60;13.17;;;20.30;99.90;;;;;;5094321;28;20181;-42
2023/07/10 01:26:28;;;;;;;18.47;13.17;;;20.20;99.90;;;;;;5094086;28;20211;-44
2023/07/10 01:28:55;;;;;;;19.10;13.30;;;20.30;99.90;;;;;;5094677;28;20171;-43
2023/07/10 01:31:21;;;;;;;18.80;13.87;;;20.20;99.90;;;;;;5094177;28;20171;-42
2023/07/10 01:33:54;;;;;;;20.03;14.43;;;20.20;99.90;;;;;;5093802;28;20615;-43
2023/07/10 01:36:23;;;;;;;17.53;13.37;;;20.10;99.90;;;;;;5094072;28;20199;-42
2023/07/10 01:38:55;;;;;;;19.43;13.87;;;20.10;99.90;;;;;;5093549;28;20191;-43
2023/07/10 01:41:24;;;;;;;19.60;13.37;;;20.10;99.90;;;;;;5093717;28;20159;-44
2023/07/10 01:43:49;;;;;;;19.20;13.60;;;20.10;99.90;;;;;;5093640;28;20178;-44
2023/07/10 01:46:21;;;;;;;17.50;14.27;;;20.10;99.90;;;;;;5093514;28;20207;-43
2023/07/10 01:48:50;;;;;;;23.70;14.70;;;20.10;99.90;;;;;;5094987;28;20187;-43
2023/07/10 01:51:16;;;;;;;26.03;15.27;;;20.00;99.90;;;;;;5093801;28;20174;-41
2023/07/10 01:53:44;;;;;;;22.43;16.17;;;20.00;99.90;;;;;;5093554;28;20590;-43
2023/07/10 01:56:11;;;;;;;25.83;15.97;;;20.00;99.90;;;;;;5093470;28;20250;-44
2023/07/10 01:58:36;;;;;;;25.87;16.43;;;19.90;99.90;;;;;;5093161;28;20171;-40
2023/07/10 02:01:02;;;;;;;24.83;17.00;;;19.90;99.90;;;;;;5093315;28;20190;-43
2023/07/10 02:03:27;;;;;;;27.33;17.30;;;19.80;99.90;;;;;;5093347;28;20179;-43
2023/07/10 02:05:53;;;;;;;22.13;16.77;;;19.80;99.90;;;;;;5093181;28;20259;-43
2023/07/10 02:08:19;;;;;;;21.90;16.23;;;19.80;99.90;;;;;;5093328;28;20175;-42
2023/07/10 02:10:44;;;;;;;24.63;16.17;;;19.80;99.90;;;;;;5093430;28;20175;-44
2023/07/10 02:13:10;;;;;;;23.40;16.97;;;19.90;99.90;;;;;;5093325;28;20645;-42
2023/07/10 02:15:35;;;;;;;27.90;16.77;;;19.90;99.90;;;;;;5093544;28;20251;-44
2023/07/10 02:18:01;;;;;;;17.30;13.00;;;19.80;99.90;;;;;;5093391;28;20217;-44
2023/07/10 02:20:26;;;;;;;18.63;9.80;;;19.90;99.90;;;;;;5093604;28;20171;-43
2023/07/10 02:22:52;;;;;;;14.47;8.20;;;19.90;99.90;;;;;;5093482;28;20202;-42
2023/07/10 02:25:17;;;;;;;13.93;7.83;;;19.90;99.90;;;;;;5094743;28;20210;-42
2023/07/10 02:27:43;;;;;;;13.53;8.00;;;19.90;99.90;;;;;;5094841;28;20179;-43
2023/07/10 02:30:09;;;;;;;13.77;6.97;;;19.90;99.90;;;;;;5095162;28;20179;-44
2023/07/10 02:32:35;;;;;;;12.93;7.17;;;19.80;99.90;;;;;;5094682;28;20647;-41
2023/07/10 02:35:00;;;;;;;11.67;7.23;;;19.80;99.80;;;;;;5093637;28;20229;-45
2023/07/10 02:37:26;;;;;;;20.73;7.27;;;19.80;99.10;;;;;;5093176;28;20202;-44
2023/07/10 02:39:51;;;;;;;9.90;7.57;;;19.80;96.10;;;;;;5093192;28;20202;-40
2023/07/10 02:42:17;;;;;;;11.30;6.57;;;19.80;92.20;;;;;;5093556;28;20254;-43
2023/07/10 02:44:42;;;;;;;12.73;6.70;;;19.80;91.10;;;;;;5093260;28;20546;-42
2023/07/10 02:47:08;;;;;;;12.20;6.30;;;19.80;80.90;;;;;;5093182;28;20651;-41
2023/07/10 02:49:33;;;;;;;10.03;6.90;;;19.80;90.80;;;;;;5093799;28;20179;-46
2023/07/10 02:51:59;;;;;;;12.27;6.13;;;19.80;88.40;;;;;;5091727;28;20537;-48
2023/07/10 02:54:24;;;;;;;12.50;5.67;;;19.80;84.70;;;;;;5092937;28;20174;-47
2023/07/10 02:56:50;;;;;;;9.30;5.50;;;19.70;79.50;;;;;;5092906;28;20175;-48
2023/07/10 02:59:16;;;;;;;10.93;6.03;;;19.70;72.90;;;;;;5092855;28;20183;-49
2023/07/10 03:01:41;;;;;;;8.90;5.13;;;19.70;73.20;;;;;;5092850;28;20704;-49
2023/07/10 03:04:07;;;;;;;10.30;5.27;;;19.70;66.90;;;;;;5092968;28;20231;-48
2023/07/10 03:06:32;;;;;;;7.73;5.40;;;19.70;73.50;;;;;;5092653;28;20206;-47
2023/07/10 03:08:58;;;;;;;7.23;5.00;;;19.60;63.30;;;;;;5093334;28;20301;-49
2023/07/10 03:11:24;;;;;;;8.83;4.77;;;19.60;60.50;;;;;;5093724;28;20555;-46
2023/07/10 03:13:52;;;;;;;9.67;4.83;;;19.60;56.10;;;;;;5096637;28;20179;-47
2023/07/10 03:16:17;;;;;;;15.10;5.20;;;19.60;55.50;;;;;;5096500;28;20281;-47
2023/07/10 03:18:43;;;;;;;10.87;4.83;;;19.60;57.80;;;;;;5096748;28;20606;-48
2023/07/10 03:21:09;;;;;;;8.50;4.50;;;19.50;59.40;;;;;;5096219;28;20175;-47
2023/07/10 03:23:35;;;;;;;12.20;4.67;;;19.50;69.20;;;;;;5096452;28;20631;-47
2023/07/10 03:26:01;;;;;;;11.80;4.90;;;19.50;57.40;;;;;;5096325;28;20209;-47
2023/07/10 03:28:27;;;;;;;10.87;5.07;;;19.40;57.10;;;;;;5096349;28;20722;-47
2023/07/10 03:30:53;;;;;;;6.53;4.17;;;19.40;54.00;;;;;;5096523;28;20167;-48
2023/07/10 03:33:19;;;;;;;10.50;4.73;;;19.40;57.30;;;;;;5096005;28;20246;-48
2023/07/10 03:35:48;;;;;;;8.67;4.47;;;19.40;55.10;;;;;;5096166;28;20202;-47
2023/07/10 03:38:15;;;;;;;8.67;4.90;;;19.40;58.80;;;;;;5095686;28;20538;-47
2023/07/10 03:40:52;;;;;;;14.03;4.97;;;19.30;54.10;;;;;;5096000;28;20619;-48
2023/07/10 03:43:18;;;;;;;10.00;4.37;;;19.30;59.20;;;;;;5096090;28;20159;-48
2023/07/10 03:45:44;;;;;;;9.40;4.43;;;19.20;50.30;;;;;;5095543;28;20715;-48
2023/07/10 03:48:09;;;;;;;12.90;4.50;;;19.20;52.60;;;;;;5096005;28;20175;-48
2023/07/10 03:50:35;;;;;;;6.83;3.90;;;19.20;47.90;;;;;;5097421;28;20675;-47
2023/07/10 03:53:00;;;;;;;9.37;4.33;;;19.20;45.60;;;;;;5096203;28;20175;-47
2023/07/10 03:55:26;;;;;;;14.43;4.57;;;19.20;48.20;;;;;;5095474;28;20563;-47
2023/07/10 03:57:52;;;;;;;10.03;4.57;;;19.20;44.40;;;;;;5095492;28;20186;-47
2023/07/10 04:00:17;;;;;;;6.47;4.63;;;19.20;45.50;;;;;;5095440;28;20190;-47
2023/07/10 04:02:43;;;;;;;9.60;4.23;;;19.20;50.40;;;;;;5095438;28;20655;-47
2023/07/10 04:05:08;;;;;;;8.93;4.70;;;19.20;49.10;;;;;;5095456;28;20207;-48
2023/07/10 04:07:34;;;;;;;9.13;4.60;;;19.20;55.50;;;;;;5095526;28;20179;-48
2023/07/10 04:09:59;;;;;;;8.33;4.87;;;19.20;59.20;;;;;;5095203;28;20543;-47
2023/07/10 04:12:25;;;;;;;10.80;4.87;;;19.10;43.30;;;;;;5095178;28;20224;-45
2023/07/10 04:14:51;;;;;;;9.20;5.43;;;19.10;49.30;;;;;;5095257;28;20213;-47
2023/07/10 04:17:16;;;;;;;10.30;4.90;;;19.20;43.20;;;;;;5095184;28;20225;-46
2023/07/10 04:19:42;;;;;;;12.07;5.27;;;19.10;41.60;;;;;;5095454;28;20260;-46
2023/07/10 04:22:07;;;;;;;8.73;5.43;;;19.10;41.40;;;;;;5095295;28;20271;-45
2023/07/10 04:24:33;;;;;;;11.43;6.00;;;19.10;40.10;;;;;;5095224;28;20206;-48
2023/07/10 04:26:59;;;;;;;7.43;4.87;;;19.10;40.50;;;;;;5094826;28;20229;-45
2023/07/10 04:29:24;;;;;;;13.00;5.40;;;19.10;40.10;;;;;;5094953;28;20276;-46
2023/07/10 04:31:50;;;;;;;14.20;5.63;;;19.10;52.50;;;;;;5095133;28;20179;-46
2023/07/10 04:34:16;;;;;;;9.50;5.13;;;19.10;44.30;;;;;;5094711;28;20182;-46
2023/07/10 04:36:42;;;;;;;9.10;5.20;;;19.00;46.00;;;;;;5095628;28;20194;-47
2023/07/10 04:39:09;;;;;;;9.47;5.70;;;19.10;46.80;;;;;;5094682;28;20630;-46
2023/07/10 04:41:34;;;;;;;10.73;5.27;;;19.10;40.20;;;;;;5094579;28;20648;-46
2023/07/10 04:44:01;;;;;;;8.57;5.73;;;19.10;43.20;;;;;;5095156;28;20178;-47
2023/07/10 04:46:27;;;;;;;13.43;5.20;;;19.10;39.90;;;;;;5094616;28;20214;-47
2023/07/10 04:48:52;;;;;;;12.27;5.70;;;19.10;38.70;;;;;;5096288;28;20171;-48
2023/07/10 04:51:19;;;;;;;10.10;4.83;;;19.10;37.10;;;;;;5094426;28;20175;-48
2023/07/10 04:53:45;;;;;;;11.70;5.93;;;19.20;46.30;;;;;;5094370;28;20171;-47
2023/07/10 04:56:13;;;;;;;12.73;5.50;;;19.20;55.70;;;;;;5094404;28;20197;-46
2023/07/10 04:59:08;;;;;;;12.20;6.17;;;19.10;46.00;;;;;;5094289;28;20589;-47
2023/07/10 05:01:34;;;;;;;16.90;5.77;;;19.10;44.60;;;;;;5093930;28;20183;-48
2023/07/10 05:04:00;;;;;;;13.57;5.73;;;19.10;56.00;;;;;;5094150;28;20179;-47
2023/07/10 05:06:27;;;;;;;15.80;6.37;;;19.10;58.20;;;;;;5095018;28;20685;-49
2023/07/10 05:08:58;;;;;;;12.53;6.20;;;19.20;54.50;;;;;;5094509;28;20189;-46
2023/07/10 05:11:27;;;;;;;10.23;6.17;;;19.10;62.60;;;;;;5094394;28;20282;-48
2023/07/10 05:13:53;;;;;;;9.73;6.40;;;19.20;50.70;;;;;;5094291;28;20233;-47
2023/07/10 05:16:19;;;;;;;8.33;5.90;;;19.10;56.40;;;;;;5093987;28;20195;-47
2023/07/10 05:18:44;;;;;;;12.07;6.27;;;19.10;53.20;;;;;;5094200;28;20524;-48
2023/07/10 05:21:10;;;;;;;9.60;6.37;;;19.10;49.30;;;;;;5094207;28;20178;-47
2023/07/10 05:23:35;;;;;;;9.17;5.77;;;19.10;50.30;;;;;;5094544;28;20266;-42
2023/07/10 05:26:14;;;;;;;11.53;6.37;;;19.20;44.40;;;;;;5094357;28;20202;-43
2023/07/10 05:28:40;;;;;;;10.40;6.07;;;19.20;47.30;;;;;;5094123;28;20171;-43
2023/07/10 05:31:08;;;;;;;10.40;5.60;;;19.20;48.00;;;;;;5093756;28;20198;-43
2023/07/10 05:33:34;;;;;;;8.97;5.27;;;19.20;42.70;;;;;;5093376;28;20200;-43
2023/07/10 05:36:06;;;;;;;11.07;6.37;;;19.30;45.60;;;;;;5093569;28;20202;-43
2023/07/10 05:38:34;;;;;;;9.70;5.73;;;19.30;44.80;;;;;;5093713;28;20243;-43
2023/07/10 05:41:00;;;;;;;9.10;5.57;;;19.30;45.70;;;;;;5093601;28;20692;-43
2023/07/10 05:43:28;;;;;;;12.70;5.63;;;19.30;37.90;;;;;;5093606;28;20175;-43
2023/07/10 05:45:54;;;;;;;8.97;5.37;;;19.40;42.00;;;;;;5093669;28;20211;-44
2023/07/10 05:48:20;;;;;;;8.67;5.33;;;19.40;38.90;;;;;;5094780;28;20171;-48
2023/07/10 05:50:47;;;;;;;9.40;5.83;;;19.40;43.60;;;;;;5093478;28;20193;-47
2023/07/10 05:53:13;;;;;;;10.50;5.20;;;19.50;45.90;;;;;;5093481;28;20237;-47
2023/07/10 05:55:48;;;;;;;8.33;5.30;;;19.50;36.90;;;;;;5093561;28;20222;-47
2023/07/10 05:58:14;;;;;;;12.00;5.43;;;19.60;34.40;;;;;;5093661;28;20573;-47
2023/07/10 06:00:41;;;;;;;9.97;4.83;;;19.60;29.70;;;;;;5093341;28;20179;-47
2023/07/10 06:03:07;;;;;;;8.10;4.93;;;19.70;28.40;;;;;;5093656;28;20361;-48
2023/07/10 06:05:32;;;;;;;10.53;5.00;;;19.70;22.80;;;;;;5093191;28;20202;-48
2023/07/10 06:07:58;;;;;;;9.80;4.97;;;19.70;18.00;;;;;;5093568;28;20232;-48
2023/07/10 06:10:24;;;;;;;10.37;4.87;;;19.80;21.10;;;;;;5093600;28;20539;-48
2023/07/10 06:12:49;;;;;;;8.13;4.73;;;19.90;17.30;;;;;;5091959;28;20266;-48
2023/07/10 06:15:15;;;;;;;8.33;5.33;;;20.00;17.40;;;;;;5093192;28;20187;-48
2023/07/10 06:17:40;;;;;;;11.73;4.60;;;20.10;23.80;;;;;;5093228;28;20258;-48
2023/07/10 06:20:07;;;;;;;8.27;4.40;;;20.20;10.80;;;;;;5093422;28;20182;-46
2023/07/10 06:22:32;;;;;;;9.47;4.83;;;20.40;10.00;;;;;;5093092;28;20221;-48
2023/07/10 06:24:58;;;;;;;8.33;4.40;;;20.50;1.00;;;;;;5093102;28;20187;-48
2023/07/10 06:27:23;;;;;;;9.73;4.43;;;20.60;1.00;;;;;;5093007;28;20231;-47
2023/07/10 06:29:51;;;;;;;9.63;4.37;;;20.60;1.00;;;;;;5093075;28;20173;-47
2023/07/10 06:32:17;;;;;;;8.13;4.53;;;20.70;1.00;;;;;;5093359;28;20195;-48
2023/07/10 06:34:43;;;;;;;8.37;4.07;;;20.70;1.00;;;;;;5092964;28;20664;-47
2023/07/10 06:37:08;;;;;;;6.43;4.03;;;20.60;1.00;;;;;;5093025;28;20187;-49
2023/07/10 06:39:34;;;;;;;9.77;4.80;;;20.70;1.00;;;;;;5092849;28;20569;-48
2023/07/10 06:41:59;;;;;;;9.37;4.47;;;20.80;1.00;;;;;;5093010;28;20601;-47
2023/07/10 06:44:25;;;;;;;6.40;4.07;;;21.10;1.00;;;;;;5093135;28;20187;-47
2023/07/10 06:46:51;;;;;;;5.03;3.70;;;21.30;1.00;;;;;;5097000;28;20202;-48
2023/07/10 06:49:16;;;;;;;6.30;3.90;;;21.60;1.00;;;;;;5098386;28;20174;-50
2023/07/10 06:51:42;;;;;;;9.07;3.70;;;21.80;1.00;;;;;;5097054;28;20202;-48
2023/07/10 06:54:08;;;;;;;4.83;3.70;;;22.00;1.00;;;;;;5096981;28;20200;-49
2023/07/10 06:56:34;;;;;;;9.53;4.47;;;22.00;1.00;;;;;;5096615;28;20190;-48
2023/07/10 06:58:59;;;;;;;6.73;3.27;;;22.10;1.00;;;;;;5097382;28;20645;-47
2023/07/10 07:01:25;;;;;;;5.87;3.50;;;22.20;1.00;;;;;;5096571;28;20170;-47
2023/07/10 07:03:50;;;;;;;6.93;3.27;;;22.40;1.00;;;;;;5096567;28;20181;-49
2023/07/10 07:06:16;;;;;;;8.93;3.80;;;22.60;1.00;;;;;;5096379;28;20787;-48
2023/07/10 07:08:46;;;;;;;6.63;3.23;;;22.80;1.00;;;;;;5096726;28;20175;-47
2023/07/10 07:11:12;;;;;;;7.73;2.60;;;22.90;1.00;;;;;;5096702;28;20187;-49
2023/07/10 07:13:37;;;;;;;4.20;2.90;;;23.00;1.00;;;;;;5096894;28;20175;-48
2023/07/10 07:16:04;;;;;;;6.10;2.57;;;23.20;1.00;;;;;;5096218;28;20199;-48
2023/07/10 07:18:31;;;;;;;4.30;2.30;;;23.30;1.00;;;;;;5096236;28;20647;-49
2023/07/10 07:20:57;;;;;;;8.97;2.60;;;23.40;1.00;;;;;;5096494;28;20233;-49
2023/07/10 07:23:23;;;;;;;4.57;1.87;;;23.40;1.00;;;;;;5096221;28;20182;-47
2023/07/10 07:25:49;;;;;;;5.40;2.20;;;23.60;1.00;;;;;;5096020;28;20599;-48
2023/07/10 07:28:15;;;;;;;3.40;1.70;;;23.70;1.00;;;;;;5096083;28;20224;-49
2023/07/10 07:30:47;;;;;;;4.47;2.00;;;23.80;1.00;;;;;;5095940;28;20591;-48
2023/07/10 07:33:14;;;;;;;4.73;1.57;;;23.90;1.00;;;;;;5095992;28;20631;-48
2023/07/10 07:35:39;;;;;;;3.77;1.90;;;23.90;1.00;;;;;;5095862;28;20667;-49
2023/07/10 07:38:05;;;;;;;6.83;2.03;;;24.00;1.00;;;;;;5096081;28;20182;-48
2023/07/10 07:40:31;;;;;;;4.30;1.97;;;24.00;1.00;;;;;;5096186;28;20171;-49
2023/07/10 07:42:57;;;;;;;3.27;1.60;;;24.10;1.00;;;;;;5096145;28;20296;-50
2023/07/10 07:45:22;;;;;;;2.87;1.43;;;24.10;1.00;;;;;;5095616;28;20198;-48
2023/07/10 07:47:52;;;;;;;4.20;1.67;;;24.00;1.00;;;;;;5096069;28;20175;-48
2023/07/10 07:50:18;;;;;;;3.30;1.93;;;24.00;1.00;;;;;;5096033;28;20179;-43
2023/07/10 07:52:44;;;;;;;3.83;1.60;;;24.20;1.00;;;;;;5095639;28;20174;-43
2023/07/10 07:55:09;;;;;;;4.33;1.70;;;24.40;1.00;;;;;;5095487;28;20205;-44
2023/07/10 07:57:36;;;;;;;3.77;1.53;;;24.50;1.00;;;;;;5093590;28;20175;-44
2023/07/10 08:00:04;;;;;;;4.00;1.80;;;24.50;1.00;;;;;;5095481;28;20189;-44
2023/07/10 08:02:29;;;;;;;6.73;2.40;;;24.50;99.90;;;;;;5095404;28;20175;-45
2023/07/10 08:04:55;;;;;;;3.63;1.73;;;24.60;1.00;;;;;;5095317;28;20746;-42
2023/07/10 08:07:21;;;;;;;3.63;1.70;;;24.60;1.00;;;;;;5095210;28;20294;-44
2023/07/10 08:09:47;;;;;;;4.47;1.80;;;24.60;99.90;;;;;;5095365;28;20351;-45
2023/07/10 08:12:12;;;;;;;4.53;1.70;;;24.70;1.00;;;;;;5095556;28;20509;-43
2023/07/10 08:14:38;;;;;;;5.10;1.60;;;24.80;99.90;;;;;;5095162;28;20187;-43
2023/07/10 08:17:03;;;;;;;3.63;1.40;;;24.80;99.90;;;;;;5095108;28;20537;-44
2023/07/10 08:19:29;;;;;;;1.53;1.00;;;24.80;1.00;;;;;;5095095;28;20175;-44
2023/07/10 08:21:57;;;;;;;6.17;1.20;;;24.70;1.00;;;;;;5095199;28;20654;-44
2023/07/10 08:24:23;;;;;;;2.97;1.40;;;24.60;99.90;;;;;;5095191;28;20170;-44
2023/07/10 08:26:49;;;;;;;3.60;1.60;;;24.60;99.90;;;;;;5095160;28;20625;-50
2023/07/10 08:29:26;;;;;;;5.03;1.80;;;24.50;1.00;;;;;;5095164;28;20253;-51
2023/07/10 08:31:56;;;;;;;4.67;1.20;;;24.50;1.00;;;;;;5095107;28;20275;-50
2023/07/10 08:34:23;;;;;;;3.77;1.67;;;24.60;99.90;;;;;;5095422;28;20175;-46
2023/07/10 08:36:52;;;;;;;4.10;1.40;;;24.60;1.00;;;;;;5096063;28;20175;-48
2023/07/10 08:39:19;;;;;;;3.43;1.43;;;24.60;99.90;;;;;;5094827;28;20563;-48
2023/07/10 08:41:47;;;;;;;6.20;1.70;;;24.60;1.00;;;;;;5095035;28;20642;-48
2023/07/10 08:44:13;;;;;;;4.10;1.93;;;24.50;99.90;;;;;;5094690;28;20175;-49
2023/07/10 08:46:39;;;;;;;5.23;1.67;;;24.40;1.00;;;;;;5094822;28;20264;-48
2023/07/10 08:49:34;;;;;;;2.33;1.23;;;24.50;35.80;;;;;;5096028;28;20228;-43
2023/07/10 08:52:29;;;;;;;3.13;1.50;;;24.70;99.90;;;;;;5094756;28;20168;-44
2023/07/10 08:54:54;;;;;;;2.47;1.43;;;24.90;99.90;;;;;;5094765;28;20194;-44
2023/07/10 08:57:29;;;;;;;2.93;1.30;;;25.10;1.00;;;;;;5094708;28;20261;-43
2023/07/10 09:00:07;;;;;;;3.17;1.60;;;25.30;1.00;;;;;;5094661;28;20170;-44
2023/07/10 09:02:57;;;;;;;5.83;1.60;;;25.50;99.90;;;;;;5093965;28;20187;-43
2023/07/10 09:05:26;;;;;;;3.77;1.70;;;25.50;99.90;;;;;;5094416;28;20290;-44
2023/07/10 09:07:53;;;;;;;2.57;1.60;;;25.60;99.90;;;;;;5094226;28;20217;-43
2023/07/10 09:10:23;;;;;;;4.17;1.60;;;25.60;1.00;;;;;;5093667;28;20183;-44
2023/07/10 09:12:54;;;;;;;4.53;1.60;;;25.80;1.00;;;;;;5094117;28;20171;-44
2023/07/10 09:15:27;;;;;;;3.43;1.83;;;26.00;99.90;;;;;;5093995;28;20197;-43
2023/07/10 09:17:55;;;;;;;3.97;1.80;;;26.10;1.00;;;;;;5094069;28;20238;-43
2023/07/10 09:20:24;;;;;;;4.43;2.25;;;26.30;99.90;;;;;;5094125;28;20704;-43
2023/07/10 09:23:01;;;;;;;3.28;1.73;;;26.30;99.80;;;;;;5094301;28;20209;-43
2023/07/10 09:25:27;;;;;;;2.60;1.40;;;26.50;99.90;;;;;;5094219;28;20563;-44
2023/07/10 09:27:52;;;;;;;3.40;1.70;;;26.50;1.00;;;;;;5093931;28;20175;-45
2023/07/10 09:30:48;;;;;;;4.13;1.70;;;26.50;19.70;;;;;;5094243;28;20178;-43
2023/07/10 09:33:13;;;;;;;5.13;1.90;;;26.50;99.90;;;;;;5093867;28;20159;-43
2023/07/10 09:35:42;;;;;;;5.32;2.15;;;26.50;1.00;;;;;;5092631;28;20747;-43
2023/07/10 09:38:18;;;;;;;4.30;2.13;;;26.50;99.90;;;;;;5093631;28;20175;-44
2023/07/10 09:40:43;;;;;;;4.03;1.80;;;26.20;99.90;;;;;;5092612;28;20202;-44
2023/07/10 09:43:19;;;;;;;4.90;1.50;;;26.20;99.90;;;;;;5094508;28;20207;-44
2023/07/10 09:45:50;;;;;;;3.80;1.83;;;26.20;1.00;;;;;;5093783;28;20205;-43
2023/07/10 09:48:33;;;;;;;3.45;1.80;;;26.40;1.00;;;;;;5094908;28;20179;-43
2023/07/10 09:51:11;;;;;;;3.75;1.92;;;26.60;1.00;;;;;;5094162;28;20209;-43
2023/07/10 09:53:45;;;;;;;5.97;2.20;;;26.80;99.90;;;;;;5093999;28;20527;-43
2023/07/10 09:56:27;;;;;;;4.35;1.52;;;26.80;99.90;;;;;;5093636;28;20700;-44
2023/07/10 09:58:56;;;;;;;4.10;2.00;;;26.90;99.90;;;;;;5093610;28;20175;-45
2023/07/10 10:01:33;;;;;;;3.42;1.75;;;26.90;1.00;;;;;;5093659;28;20217;-44
2023/07/10 10:04:02;;;;;;;2.90;1.88;;;26.80;99.90;;;;;;5093427;28;20655;-44
2023/07/10 10:06:29;;;;;;;4.53;2.10;;;26.70;99.90;;;;;;5093558;28;20756;-45
2023/07/10 10:08:55;;;;;;;4.25;1.92;;;26.70;99.90;;;;;;5093994;28;20220;-44
2023/07/10 10:11:38;;;;;;;7.28;2.30;;;26.80;99.90;;;;;;5093423;28;20177;-45
2023/07/10 10:14:09;;;;;;;4.28;2.00;;;26.80;99.90;;;;;;5093714;28;20182;-45
2023/07/10 10:16:57;;;;;;;3.45;1.80;;;26.80;99.90;;;;;;5093290;28;20190;-43
2023/07/10 10:19:30;;;;;;;4.78;1.98;;;27.00;99.90;;;;;;5093257;28;20639;-44
2023/07/10 10:21:56;;;;;;;5.80;1.60;;;27.10;99.90;;;;;;5097463;28;20257;-44
2023/07/10 10:24:24;;;;;;;5.38;1.95;;;27.20;1.00;;;;;;5096199;28;20273;-45
2023/07/10 10:27:14;;;;;;;2.55;1.95;;;27.30;73.60;;;;;;5097585;28;20202;-45
2023/07/10 10:29:42;;;;;;;4.30;1.83;;;27.20;1.00;;;;;;5097887;28;20703;-43
2023/07/10 10:32:08;;;;;;;4.20;1.60;;;27.20;99.90;;;;;;5097261;28;20205;-45
2023/07/10 10:34:52;;;;;;;3.90;1.70;;;27.20;99.90;;;;;;5097540;28;20194;-44
2023/07/10 10:37:58;;;;;;;2.83;1.40;;;27.10;1.00;;;;;;5097540;28;20197;-43
2023/07/10 10:40:42;;;;;;;2.10;1.27;;;27.00;1.00;;;;;;5097526;28;20175;-45
2023/07/10 10:43:17;;;;;;;4.22;1.70;;;27.00;1.00;;;;;;5097500;28;20262;-43
2023/07/10 10:45:49;;;;;;;5.53;1.67;;;27.10;1.00;;;;;;5097026;28;20217;-45
2023/07/10 10:48:25;;;;;;;3.92;2.08;;;27.00;1.00;;;;;;5098292;28;20164;-50
2023/07/10 10:51:23;;;;;;;3.38;1.98;;;27.20;1.00;;;;;;5097442;28;20182;-50
2023/07/10 10:53:54;;;;;;;4.45;1.83;;;27.50;1.00;;;;;;5097216;28;20542;-50
2023/07/10 10:56:32;;;;;;;4.32;2.10;;;27.40;1.00;;;;;;5096883;28;20670;-50
2023/07/10 10:59:35;;;;;;;3.13;1.50;;;27.30;99.90;;;;;;5097184;28;20177;-50
2023/07/10 11:02:34;;;;;;;2.90;1.52;;;27.30;1.00;;;;;;5097150;28;20257;-49
2023/07/10 11:05:10;;;;;;;3.55;1.50;;;27.50;99.90;;;;;;5096802;28;20659;-49
2023/07/10 11:07:39;;;;;;;4.00;1.40;;;27.50;1.00;;;;;;5096894;28;20647;-50
2023/07/10 11:10:14;;;;;;;3.53;1.52;;;27.60;99.90;;;;;;5096550;28;20677;-49
2023/07/10 11:12:40;;;;;;;3.85;1.55;;;27.60;1.00;;;;;;5096788;28;20163;-50
2023/07/10 11:15:27;;;;;;;2.45;1.60;;;27.40;26.50;;;;;;5096505;28;20191;-49
2023/07/10 11:17:54;;;;;;;5.13;1.50;;;27.40;99.90;;;;;;5096578;28;20579;-50
2023/07/10 11:20:21;;;;;;;3.50;1.40;;;27.50;1.00;;;;;;5096433;28;20179;-50
2023/07/10 11:22:55;;;;;;;4.13;1.55;;;27.60;99.90;;;;;;5096268;28;20656;-49
2023/07/10 11:25:42;;;;;;;2.35;1.42;;;27.80;1.00;;;;;;5096398;28;20201;-50
2023/07/10 11:28:25;;;;;;;2.22;1.27;;;28.00;10.10;;;;;;5096498;28;20208;-49
2023/07/10 11:31:16;;;;;;;5.10;1.48;;;28.30;99.90;;;;;;5096232;28;20202;-50
2023/07/10 11:33:43;;;;;;;1.42;1.00;;;28.60;99.90;;;;;;5095594;28;20532;-50
2023/07/10 11:36:14;;;;;;;1.95;1.10;;;28.90;29.90;;;;;;5096287;28;20233;-50
2023/07/10 11:39:05;;;;;;;2.92;1.25;;;28.90;1.00;;;;;;5095977;28;20537;-51
2023/07/10 11:41:38;;;;;;;1.92;1.13;;;29.00;1.00;;;;;;5096016;28;20217;-51
2023/07/10 11:44:31;;;;;;;2.05;1.13;;;29.10;99.90;;;;;;5095820;28;20175;-50
2023/07/10 11:47:02;;;;;;;4.15;1.60;;;29.20;1.00;;;;;;5095967;28;20234;-50
2023/07/10 11:49:42;;;;;;;2.83;1.48;;;29.30;1.00;;;;;;5097459;28;20183;-45
2023/07/10 11:52:24;;;;;;;1.75;1.05;;;29.40;1.00;;;;;;5096004;28;20163;-46
2023/07/10 11:54:50;;;;;;;3.15;1.20;;;29.40;99.90;;;;;;5095902;28;20183;-45
2023/07/10 11:57:30;;;;;;;3.28;1.17;;;29.50;99.90;;;;;;5095568;28;20719;-44
2023/07/10 12:00:02;;;;;;;4.15;1.70;;;29.60;99.90;;;;;;5095597;28;20197;-46
2023/07/10 12:02:48;;;;;;;2.63;1.40;;;29.60;99.90;;;;;;5095836;28;20220;-44
2023/07/10 12:05:14;;;;;;;2.60;1.20;;;29.60;1.00;;;;;;5095715;28;20293;-45
2023/07/10 12:07:49;;;;;;;5.40;1.50;;;29.60;99.90;;;;;;5095724;28;20209;-44
2023/07/10 12:10:15;;;;;;;3.70;1.40;;;29.40;99.90;;;;;;5095730;28;20181;-45
2023/07/10 12:12:40;;;;;;;4.75;1.27;;;29.20;1.00;;;;;;5095597;28;20171;-45
2023/07/10 12:15:09;;;;;;;5.13;1.40;;;29.20;1.00;;;;;;5095481;28;20218;-44
2023/07/10 12:17:38;;;;;;;4.50;1.30;;;29.40;99.90;;;;;;5095203;28;20171;-45
2023/07/10 12:20:17;;;;;;;2.58;1.42;;;29.40;1.00;;;;;;5095212;28;20191;-45
2023/07/10 12:22:42;;;;;;;3.33;1.40;;;29.50;99.90;;;;;;5095482;28;20590;-45
2023/07/10 12:25:14;;;;;;;3.65;1.38;;;29.70;99.90;;;;;;5095288;28;20223;-45
2023/07/10 12:27:40;;;;;;;2.42;1.40;;;29.60;99.90;;;;;;5094937;28;20211;-44
2023/07/10 12:30:19;;;;;;;4.63;1.40;;;29.50;99.90;;;;;;5095016;28;20179;-44
2023/07/10 12:32:46;;;;;;;2.13;1.20;;;29.40;99.90;;;;;;5095177;28;20182;-44
2023/07/10 12:35:14;;;;;;;5.75;1.40;;;29.40;99.90;;;;;;5094865;28;20675;-43
2023/07/10 12:37:45;;;;;;;4.63;1.10;;;29.50;99.90;;;;;;5095096;28;20217;-44
2023/07/10 12:40:18;;;;;;;2.35;1.30;;;29.70;1.00;;;;;;5094782;28;20190;-45
2023/07/10 12:42:45;;;;;;;3.28;1.10;;;29.90;99.90;;;;;;5094872;28;20202;-45
2023/07/10 12:45:27;;;;;;;2.53;1.20;;;29.90;99.90;;;;;;5094634;28;20277;-44
2023/07/10 12:48:05;;;;;;;2.67;1.30;;;29.60;99.90;;;;;;5096105;28;20167;-45
2023/07/10 12:50:39;;;;;;;3.83;1.10;;;29.30;99.90;;;;;;5093617;28;20209;-44
2023/07/10 12:53:06;;;;;;;4.15;1.38;;;29.20;99.90;;;;;;5094851;28;20330;-46
2023/07/10 12:55:32;;;;;;;3.17;1.30;;;28.90;99.90;;;;;;5094717;28;20191;-42
2023/07/10 12:58:01;;;;;;;3.25;1.30;;;28.70;99.90;;;;;;5094422;28;20195;-44